Time;durP1;ratioP1;P1;durP2;ratioP2;P2;SDS_P1;SDS_P2;PMS_P1;PMS_P2;Temp;Humidity;BMP_temperature;BMP_pressure;BME280_temperature;BME280_humidity;BME280_pressure;Samples;Min_cycle;Max_cycle;Signal;HPM_P1;HPM_P2
2022/03/18 00:01:36;;;;;;;20.98;12.00;;;;;;;-0.30;100.00;103818.69;5279685;28;20033;-78
2022/03/18 00:04:07;;;;;;;20.98;13.32;;;;;;;-0.39;100.00;103833.59;5280821;28;20342;-78
2022/03/18 00:06:39;;;;;;;26.10;13.07;;;;;;;-0.46;100.00;103839.66;5279180;28;20519;-78
2022/03/18 00:09:10;;;;;;;17.48;11.60;;;;;;;-0.43;100.00;103854.53;5261977;28;20025;-78
2022/03/18 00:11:42;;;;;;;17.55;10.20;;;;;;;-0.57;100.00;103838.78;5275402;28;20033;-78
2022/03/18 00:14:14;;;;;;;15.63;9.48;;;;;;;-0.68;100.00;103837.91;5261901;28;20022;-78
2022/03/18 00:16:45;;;;;;;15.88;8.98;;;;;;;-0.54;100.00;103851.00;5276886;28;20473;-78
2022/03/18 00:19:17;;;;;;;14.75;8.35;;;;;;;-0.79;100.00;103848.31;5279653;28;20036;-78
2022/03/18 00:21:52;;;;;;;15.25;8.98;;;;;;;-0.93;100.00;103844.78;5278980;28;20032;-78
2022/03/18 00:24:23;;;;;;;14.25;7.38;;;;;;;-0.71;100.00;103858.84;5279716;28;20029;-78
2022/03/18 00:26:54;;;;;;;12.50;7.93;;;;;;;-1.09;100.00;103857.81;5279236;28;20087;-78
2022/03/18 00:29:26;;;;;;;14.27;8.02;;;;;;;-1.13;100.00;103852.59;5280016;28;20092;-78
2022/03/18 00:31:57;;;;;;;17.08;9.07;;;;;;;-1.01;100.00;103842.16;5259189;28;20029;-78
2022/03/18 00:34:29;;;;;;;18.88;9.93;;;;;;;-1.08;100.00;103837.75;5279375;28;20694;-78
2022/03/18 00:37:00;;;;;;;22.52;10.43;;;;;;;-1.08;100.00;103841.25;5278954;28;20052;-78
2022/03/18 00:39:31;;;;;;;16.05;10.27;;;;;;;-1.12;100.00;103847.34;5277495;28;20025;-77
2022/03/18 00:42:03;;;;;;;21.27;11.98;;;;;;;-1.01;100.00;103857.88;5277368;28;20041;-77
2022/03/18 00:44:34;;;;;;;24.17;12.43;;;;;;;-0.87;100.00;103850.94;5279859;28;20025;-78
2022/03/18 00:52:03;;;;;;;19.55;11.07;;;;;;;-1.01;100.00;103866.59;5280299;28;20013;-78
2022/03/18 00:52:48;;;;;;;19.45;10.30;;;;;;;-1.33;100.00;103863.84;5279487;28;20029;-77
2022/03/18 00:55:19;;;;;;;14.98;9.57;;;;;;;-1.25;100.00;103879.59;5279983;28;20039;-78
2022/03/18 00:57:51;;;;;;;18.73;10.15;;;;;;;-1.33;100.00;103880.41;5280146;28;20024;-77
2022/03/18 01:00:22;;;;;;;16.23;9.45;;;;;;;-1.30;100.00;103876.06;5280298;28;20091;-78
2022/03/18 01:02:53;;;;;;;18.85;10.52;;;;;;;-1.43;100.00;103886.47;5281248;28;20094;-77
2022/03/18 01:05:25;;;;;;;14.02;8.43;;;;;;;-1.35;100.00;103895.25;5283713;28;20025;-77
2022/03/18 01:07:56;;;;;;;13.32;8.80;;;;;;;-1.43;100.00;103890.84;5283617;28;20095;-77
2022/03/18 01:10:28;;;;;;;17.15;8.35;;;;;;;-1.43;100.00;103896.06;5282398;28;20035;-77
2022/03/18 01:12:59;;;;;;;15.27;8.05;;;;;;;-1.54;100.00;103903.88;5280466;28;20033;-77
2022/03/18 01:15:31;;;;;;;13.13;7.35;;;;;;;-1.77;100.00;103901.94;5283174;28;20124;-77
2022/03/18 01:18:03;;;;;;;16.80;9.00;;;;;;;-1.82;100.00;103897.50;5282760;28;20029;-77
2022/03/18 01:20:34;;;;;;;16.08;8.52;;;;;;;-2.02;100.00;103884.28;5282049;28;20109;-77
2022/03/18 01:23:06;;;;;;;14.30;8.45;;;;;;;-2.02;100.00;103894.75;5265032;28;20049;-77
2022/03/18 01:25:37;;;;;;;17.65;8.93;;;;;;;-2.16;100.00;103895.47;5279354;28;20401;-77
2022/03/18 01:28:08;;;;;;;11.60;7.18;;;;;;;-2.30;100.00;103890.13;5264912;28;20048;-77
2022/03/18 01:30:40;;;;;;;14.65;7.22;;;;;;;-2.39;100.00;103891.78;5279940;28;20086;-77
2022/03/18 01:33:11;;;;;;;16.67;8.52;;;;;;;-2.28;100.00;103893.63;5282675;28;20056;-77
2022/03/18 01:35:42;;;;;;;12.82;8.23;;;;;;;-2.35;100.00;103881.38;5263770;28;20028;-77
2022/03/18 01:38:14;;;;;;;15.43;8.68;;;;;;;-2.48;100.00;103890.81;5259036;28;20088;-77
2022/03/18 01:40:46;;;;;;;10.65;6.70;;;;;;;-2.55;100.00;103901.19;5257354;28;20054;-77
2022/03/18 01:43:17;;;;;;;14.88;7.88;;;;;;;-2.56;100.00;103889.88;5261082;28;20049;-77
2022/03/18 01:45:50;;;;;;;10.90;8.10;;;;;;;-2.50;100.00;103886.44;5261730;28;20517;-77
2022/03/18 01:48:22;;;;;;;13.52;8.88;;;;;;;-2.61;100.00;103888.03;5261694;28;20037;-77
2022/03/18 01:50:53;;;;;;;14.65;7.75;;;;;;;-2.43;100.00;103895.22;5261441;28;20064;-77
2022/03/18 01:53:25;;;;;;;14.93;8.35;;;;;;;-2.55;100.00;103901.19;5261718;28;20037;-77
2022/03/18 01:55:56;;;;;;;17.55;8.93;;;;;;;-2.54;100.00;103900.31;5260261;28;20072;-77
2022/03/18 01:58:27;;;;;;;16.63;8.57;;;;;;;-2.69;100.00;103893.19;5260477;28;20030;-77
2022/03/18 02:00:59;;;;;;;16.02;9.20;;;;;;;-2.68;100.00;103893.22;5260204;28;20034;-76
2022/03/18 02:03:30;;;;;;;15.32;8.95;;;;;;;-2.16;100.00;103890.25;5257798;28;20045;-77
2022/03/18 02:06:01;;;;;;;21.25;10.05;;;;;;;-2.25;100.00;103892.78;5261203;28;20079;-77
2022/03/18 02:08:34;;;;;;;21.30;11.63;;;;;;;-2.05;100.00;103884.25;5261173;28;20040;-77
2022/03/18 02:11:07;;;;;;;23.35;11.57;;;;;;;-2.21;100.00;103888.47;5259592;28;20541;-77
2022/03/18 02:13:38;;;;;;;25.80;10.30;;;;;;;-2.15;100.00;103909.44;5256425;28;20036;-76
2022/03/18 02:16:10;;;;;;;16.60;9.15;;;;;;;-2.34;100.00;103896.19;5259560;28;20025;-77
2022/03/18 02:18:41;;;;;;;14.57;8.18;;;;;;;-2.28;100.00;103914.56;5255633;28;20037;-76
2022/03/18 02:21:14;;;;;;;13.18;7.57;;;;;;;-2.18;100.00;103922.50;5254632;28;20026;-76
2022/03/18 02:23:45;;;;;;;17.20;8.52;;;;;;;-2.36;100.00;103912.72;5260769;28;20362;-77
2022/03/18 02:26:17;;;;;;;14.38;8.82;;;;;;;-2.43;100.00;103909.16;5260970;28;20036;-77
2022/03/18 02:28:48;;;;;;;15.18;9.70;;;;;;;-2.54;100.00;103913.38;5260291;28;20091;-77
2022/03/18 02:31:20;;;;;;;17.48;8.60;;;;;;;-2.37;100.00;103905.72;5257342;28;20029;-77
2022/03/18 02:33:51;;;;;;;18.30;8.95;;;;;;;-2.56;100.00;103904.66;5257840;28;41865;-76
2022/03/18 02:36:22;;;;;;;17.40;9.43;;;;;;;-2.49;100.00;103906.47;5260508;28;20438;-77
2022/03/18 02:38:54;;;;;;;18.48;10.13;;;;;;;-2.22;100.00;103921.59;5278193;28;20028;-77
2022/03/18 02:41:25;;;;;;;18.63;9.48;;;;;;;-2.43;100.00;103922.25;5263267;28;20021;-77
2022/03/18 02:43:56;;;;;;;20.63;10.30;;;;;;;-2.53;100.00;103918.63;5280222;28;34085;-77
2022/03/18 02:46:32;;;;;;;19.25;9.32;;;;;;;-2.50;100.00;103930.88;5281247;28;20029;-76
2022/03/18 02:49:05;;;;;;;15.77;8.80;;;;;;;-2.47;100.00;103920.47;5279647;28;20033;-76
2022/03/18 02:51:37;;;;;;;16.90;8.10;;;;;;;-2.64;100.00;103927.22;5281626;28;20264;-76
2022/03/18 02:54:09;;;;;;;16.95;8.93;;;;;;;-2.67;100.00;103928.91;5281664;28;20420;-76
2022/03/18 02:56:41;;;;;;;18.33;9.45;;;;;;;-2.60;100.00;103929.00;5279937;28;20072;-76
2022/03/18 02:59:12;;;;;;;17.08;8.60;;;;;;;-2.74;100.00;103928.84;5281691;28;20567;-76
2022/03/18 03:01:44;;;;;;;15.98;8.35;;;;;;;-2.86;100.00;103935.69;5279889;28;20091;-77
2022/03/18 03:04:17;;;;;;;16.92;8.90;;;;;;;-2.95;100.00;103943.38;5280691;28;20021;-76
2022/03/18 03:09:38;;;;;;;16.15;10.85;;;;;;;-2.89;100.00;103946.06;5280734;28;20040;-76
2022/03/18 03:12:09;;;;;;;21.95;10.15;;;;;;;-3.01;100.00;103934.59;5281271;28;20075;-76
2022/03/18 03:14:41;;;;;;;16.17;9.60;;;;;;;-3.15;100.00;103947.47;5277062;28;20037;-76
2022/03/18 03:17:12;;;;;;;15.00;9.27;;;;;;;-3.00;100.00;103949.38;5280708;28;20041;-75
2022/03/18 03:19:43;;;;;;;12.40;8.75;;;;;;;-3.12;100.00;103937.03;5280606;28;20048;-76
2022/03/18 03:22:14;;;;;;;20.60;8.45;;;;;;;-3.21;100.00;103945.59;5280868;28;20048;-76
2022/03/18 03:24:47;;;;;;;15.07;7.85;;;;;;;-3.10;100.00;103959.72;5279185;28;20033;-76
2022/03/18 03:27:18;;;;;;;13.43;8.30;;;;;;;-3.14;100.00;103955.28;5281323;28;20138;-75
2022/03/18 03:29:50;;;;;;;15.57;8.80;;;;;;;-3.42;100.00;103970.56;5280068;28;20041;-76
2022/03/18 03:32:21;;;;;;;9.75;5.93;;;;;;;-3.33;100.00;103968.94;5280473;28;20021;-76
2022/03/18 03:34:52;;;;;;;16.50;7.60;;;;;;;-3.13;100.00;103966.63;5280611;28;20029;-76
2022/03/18 03:37:25;;;;;;;12.80;6.63;;;;;;;-2.88;100.00;103960.88;5280503;28;20041;-76
2022/03/18 03:39:56;;;;;;;17.65;8.25;;;;;;;-2.61;100.00;103958.59;5277996;28;20033;-76
2022/03/18 03:42:27;;;;;;;14.25;7.60;;;;;;;-2.32;100.00;103967.66;5279932;28;20044;-76
2022/03/18 03:44:59;;;;;;;18.02;8.07;;;;;;;-2.10;100.00;103976.63;5280954;28;20032;-76
2022/03/18 03:47:30;;;;;;;19.23;9.40;;;;;;;-1.72;100.00;103977.88;5280511;28;20032;-76
2022/03/18 03:50:01;;;;;;;18.80;11.45;;;;;;;-1.69;100.00;103988.38;5261814;28;20028;-76
2022/03/18 03:52:34;;;;;;;15.07;10.90;;;;;;;-1.47;100.00;103985.94;5280385;28;20659;-76
2022/03/18 03:55:07;;;;;;;13.20;9.80;;;;;;;-1.36;100.00;103986.91;5277929;28;20482;-76
2022/03/18 03:57:40;;;;;;;14.40;8.52;;;;;;;-1.28;100.00;103985.22;5280945;28;20032;-76
2022/03/18 04:00:12;;;;;;;17.10;9.70;;;;;;;-1.32;100.00;103983.44;5278861;28;20385;-76
2022/03/18 04:02:43;;;;;;;17.13;10.57;;;;;;;-1.87;100.00;103981.22;5277623;28;20052;-76
2022/03/18 04:05:15;;;;;;;12.52;8.43;;;;;;;-1.60;100.00;104004.16;5278360;28;20017;-77
2022/03/18 04:07:46;;;;;;;13.98;9.13;;;;;;;-1.59;100.00;104005.91;5278152;28;20116;-77
2022/03/18 04:10:19;;;;;;;19.30;10.95;;;;;;;-1.71;100.00;104008.41;5280007;28;20365;-77
2022/03/18 04:12:50;;;;;;;18.42;9.95;;;;;;;-1.66;100.00;104003.25;5259254;28;20035;-77
2022/03/18 04:15:21;;;;;;;17.55;10.50;;;;;;;-2.06;100.00;103997.59;5275455;28;43503;-77
2022/03/18 04:17:53;;;;;;;18.70;10.48;;;;;;;-2.12;100.00;104011.50;5278475;28;20025;-77
2022/03/18 04:20:25;;;;;;;16.73;9.55;;;;;;;-2.45;100.00;104004.09;5261316;28;20032;-77
2022/03/18 04:22:56;;;;;;;15.98;9.55;;;;;;;-2.59;100.00;104014.41;5276777;28;20055;-76
2022/03/18 04:25:30;;;;;;;17.92;10.00;;;;;;;-2.75;100.00;104015.91;5276186;28;20020;-77
2022/03/18 04:28:02;;;;;;;19.35;9.15;;;;;;;-2.80;100.00;104021.09;5276450;28;20028;-77
2022/03/18 04:30:33;;;;;;;13.15;9.00;;;;;;;-2.96;100.00;104030.44;5279906;28;20018;-77
2022/03/18 04:33:04;;;;;;;14.02;8.18;;;;;;;-2.89;100.00;104029.69;5279158;28;20025;-77
2022/03/18 04:35:36;;;;;;;16.63;9.85;;;;;;;-3.08;100.00;104028.50;5279745;28;20032;-77
2022/03/18 04:38:07;;;;;;;14.88;8.20;;;;;;;-3.11;100.00;104041.53;5283600;28;20490;-77
2022/03/18 04:40:38;;;;;;;13.45;8.77;;;;;;;-3.14;100.00;104049.31;5277593;28;20026;-77
2022/03/18 04:43:10;;;;;;;14.18;8.75;;;;;;;-3.25;100.00;104050.88;5282719;28;20033;-77
2022/03/18 04:45:41;;;;;;;13.75;8.32;;;;;;;-2.42;100.00;104036.44;5281734;28;20037;-77
2022/03/18 04:48:12;;;;;;;19.85;11.10;;;;;;;-2.07;100.00;104037.69;5283696;28;20108;-77
2022/03/18 04:50:44;;;;;;;18.30;10.90;;;;;;;-1.75;100.00;104038.94;5283662;28;20428;-76
2022/03/18 04:53:15;;;;;;;19.17;11.93;;;;;;;-1.56;100.00;104039.09;5265561;28;20447;-77
2022/03/18 04:55:46;;;;;;;23.45;12.90;;;;;;;-1.32;100.00;104038.44;5282024;28;20368;-77
2022/03/18 04:58:17;;;;;;;20.30;11.77;;;;;;;-1.24;100.00;104051.59;5280694;28;20061;-77
2022/03/18 05:00:49;;;;;;;20.13;11.13;;;;;;;-1.40;100.00;104041.00;5283697;28;20083;-77
2022/03/18 05:03:20;;;;;;;23.13;12.23;;;;;;;-1.22;100.00;104055.97;5283344;28;20047;-77
2022/03/18 05:05:52;;;;;;;16.75;11.23;;;;;;;-1.22;100.00;104048.13;5282189;28;20024;-76
2022/03/18 05:08:23;;;;;;;31.10;14.52;;;;;;;-1.35;100.00;104056.72;5283680;28;20463;-76
2022/03/18 05:10:54;;;;;;;19.15;11.90;;;;;;;-1.18;100.00;104062.13;5281082;28;20028;-77
2022/03/18 05:13:26;;;;;;;21.27;11.15;;;;;;;-1.50;100.00;104065.34;5284105;28;20033;-77
2022/03/18 05:15:58;;;;;;;20.10;13.43;;;;;;;-1.67;100.00;104075.63;5282807;28;20028;-77
2022/03/18 05:18:29;;;;;;;19.77;11.98;;;;;;;-1.98;100.00;104067.47;5281533;28;20025;-77
2022/03/18 05:21:00;;;;;;;18.27;11.43;;;;;;;-2.13;100.00;104080.34;5283698;28;20029;-77
2022/03/18 05:23:32;;;;;;;15.00;10.85;;;;;;;-2.34;100.00;104073.13;5281583;28;20038;-77
2022/03/18 05:26:04;;;;;;;15.05;10.05;;;;;;;-2.52;100.00;104081.59;5282612;28;20025;-77
2022/03/18 05:28:37;;;;;;;17.00;10.63;;;;;;;-2.50;100.00;104085.09;5280092;28;20500;-77
2022/03/18 05:31:09;;;;;;;22.20;11.27;;;;;;;-2.68;100.00;104070.91;5280688;28;20029;-77
2022/03/18 05:33:40;;;;;;;21.48;11.20;;;;;;;-2.60;100.00;104084.09;5281659;28;20024;-77
2022/03/18 05:36:12;;;;;;;18.70;10.93;;;;;;;-2.81;100.00;104087.25;5283362;28;20393;-77
2022/03/18 05:38:43;;;;;;;21.63;11.65;;;;;;;-2.84;100.00;104089.81;5277761;28;20037;-77
2022/03/18 05:41:14;;;;;;;19.55;11.07;;;;;;;-2.74;100.00;104086.50;5280289;28;20135;-77
2022/03/18 05:43:46;;;;;;;18.48;12.10;;;;;;;-2.80;100.00;104091.63;5263771;28;20470;-77
2022/03/18 05:46:17;;;;;;;22.83;11.68;;;;;;;-2.77;100.00;104086.47;5282133;28;20045;-77
2022/03/18 05:48:48;;;;;;;19.30;12.20;;;;;;;-2.74;100.00;104081.25;5263886;28;20488;-77
2022/03/18 05:51:20;;;;;;;21.63;12.20;;;;;;;-2.69;100.00;104083.97;5282121;28;20033;-77
2022/03/18 05:53:51;;;;;;;33.15;15.38;;;;;;;-2.61;100.00;104081.44;5282376;28;20032;-77
2022/03/18 05:59:13;;;;;;;24.30;12.68;;;;;;;-2.34;100.00;104065.28;5281533;28;20075;-77
2022/03/18 06:01:44;;;;;;;22.13;14.65;;;;;;;-2.17;100.00;104100.38;5282378;28;20087;-76
2022/03/18 06:04:16;;;;;;;28.58;16.45;;;;;;;-2.04;100.00;104103.13;5264580;28;20684;-76
2022/03/18 06:06:47;;;;;;;28.75;13.50;;;;;;;-2.45;100.00;104114.81;5282016;28;20370;-76
2022/03/18 06:12:09;;;;;;;28.42;13.15;;;;;;;-2.18;100.00;104098.59;5281864;28;20032;-77
2022/03/18 06:14:40;;;;;;;26.73;14.50;;;;;;;-2.05;100.00;104117.06;5282532;28;20493;-76
2022/03/18 06:17:12;;;;;;;26.05;14.07;;;;;;;-2.24;100.00;104108.09;5282061;28;20032;-77
2022/03/18 06:19:43;;;;;;;22.95;14.43;;;;;;;-2.09;100.00;104121.38;5282722;28;20056;-75
2022/03/18 06:22:14;;;;;;;18.98;12.85;;;;;;;-2.13;100.00;104123.06;5280989;28;36054;-76
2022/03/18 06:24:46;;;;;;;26.38;14.32;;;;;;;-2.19;100.00;104117.78;5263967;28;20543;-75
2022/03/18 06:27:17;;;;;;;24.92;14.20;;;;;;;-2.07;100.00;104143.19;5281956;28;20098;-76
2022/03/18 06:29:48;;;;;;;26.77;15.20;;;;;;;-1.98;100.00;104145.06;5281900;28;20036;-76
2022/03/18 06:32:20;;;;;;;22.58;13.77;;;;;;;-1.99;100.00;104138.94;5281465;28;20114;-76
2022/03/18 06:34:51;;;;;;;29.02;14.65;;;;;;;-1.91;100.00;104141.69;5282412;28;20029;-76
2022/03/18 06:37:22;;;;;;;27.70;15.32;;;;;;;-1.72;100.00;104141.03;5281352;28;20041;-76
2022/03/18 06:39:53;;;;;;;28.98;15.07;;;;;;;-1.55;100.00;104137.72;5282189;28;20037;-76
2022/03/18 06:42:25;;;;;;;26.27;16.50;;;;;;;-1.09;100.00;104145.16;5280852;28;20021;-75
2022/03/18 06:44:56;;;;;;;30.20;20.38;;;;;;;-0.53;100.00;104152.59;5282148;28;20028;-76
2022/03/18 06:47:27;;;;;;;35.75;21.98;;;;;;;0.14;100.00;104145.94;5281785;28;20109;-76
2022/03/18 06:49:58;;;;;;;32.17;23.13;;;;;;;0.77;100.00;104158.38;5281759;28;20029;-76
2022/03/18 06:52:30;;;;;;;36.05;23.35;;;;;;;1.30;100.00;104158.41;5262821;28;20063;-76
2022/03/18 06:55:01;;;;;;;30.75;21.33;;;;;;;1.94;100.00;104163.56;5278960;28;20099;-77
2022/03/18 06:57:32;;;;;;;30.00;20.55;;;;;;;2.43;100.00;104163.34;5280542;28;20017;-76
2022/03/18 07:00:04;;;;;;;25.80;19.30;;;;;;;3.09;100.00;104172.59;5262196;28;20025;-76
2022/03/18 07:02:36;;;;;;;27.92;17.05;;;;;;;3.65;100.00;104175.59;5262787;28;20433;-77
2022/03/18 07:05:08;;;;;;;18.90;12.57;;;;;;;3.98;100.00;104174.38;5263830;28;20021;-77
2022/03/18 07:07:40;;;;;;;17.35;12.20;;;;;;;4.84;100.00;104173.19;5282166;28;20775;-77
2022/03/18 07:10:12;;;;;;;14.07;9.65;;;;;;;5.41;100.00;104171.38;5281722;28;20033;-77
2022/03/18 07:12:43;;;;;;;15.98;8.93;;;;;;;6.12;100.00;104183.28;5281794;28;20482;-77
2022/03/18 07:15:14;;;;;;;11.85;8.52;;;;;;;6.61;100.00;104174.28;5281705;28;20911;-77
2022/03/18 07:17:55;;;;;;;21.35;8.35;;;;;;;7.36;100.00;104172.44;5263001;28;20033;-77
2022/03/18 07:20:28;;;;;;;13.30;7.43;;;;;;;8.08;100.00;104181.97;5282083;28;20553;-77
2022/03/18 07:23:03;;;;;;;15.95;8.45;;;;;;;8.88;100.00;104163.59;5282429;28;20255;-77
2022/03/18 07:25:41;;;;;;;16.98;7.13;;;;;;;9.68;100.00;104174.19;5281442;28;20035;-77
2022/03/18 07:28:14;;;;;;;13.77;6.85;;;;;;;10.38;100.00;104161.84;5277229;28;20044;-78
2022/03/18 07:30:45;;;;;;;13.52;6.45;;;;;;;10.78;100.00;104160.22;5263362;28;20037;-77
2022/03/18 07:33:16;;;;;;;15.43;6.28;;;;;;;11.35;100.00;104153.34;5282852;28;20048;-77
2022/03/18 07:35:48;;;;;;;10.15;5.85;;;;;;;12.42;100.00;104165.47;5282812;28;20021;-77
2022/03/18 07:38:20;;;;;;;13.63;5.25;;;;;;;12.68;100.00;104161.53;5264475;28;20117;-77
2022/03/18 07:40:51;;;;;;;12.07;5.55;;;;;;;12.96;100.00;104172.69;5282658;28;20049;-78
2022/03/18 07:43:22;;;;;;;10.75;5.85;;;;;;;13.96;100.00;104181.78;5282286;28;20126;-78
2022/03/18 07:45:54;;;;;;;14.15;5.57;;;;;;;14.58;100.00;104183.75;5279827;28;20041;-78
2022/03/18 07:48:28;;;;;;;12.68;5.85;;;;;;;15.05;98.25;104185.50;5282206;28;20025;-78
2022/03/18 07:50:59;;;;;;;11.95;5.75;;;;;;;14.86;90.73;104196.47;5254985;28;20620;-78
2022/03/18 07:53:31;;;;;;;12.13;5.30;;;;;;;15.75;90.24;104202.91;5271498;28;20139;-78
2022/03/18 07:56:02;;;;;;;11.15;5.45;;;;;;;16.12;73.67;104212.22;5279090;28;20068;-78
2022/03/18 07:58:33;;;;;;;14.90;5.75;;;;;;;16.02;78.35;104203.00;5260894;28;20034;-78
2022/03/18 08:01:05;;;;;;;13.73;5.57;;;;;;;16.11;74.06;104210.50;5261319;28;20009;-78
2022/03/18 08:03:37;;;;;;;17.55;5.70;;;;;;;16.71;67.51;104203.09;5261059;28;20034;-79
2022/03/18 08:06:08;;;;;;;13.98;5.95;;;;;;;16.71;73.35;104206.63;5265946;28;20028;-79
2022/03/18 08:08:40;;;;;;;16.25;6.18;;;;;;;17.29;62.68;104203.72;5262759;28;22030;-79
2022/03/18 08:11:12;;;;;;;10.80;5.60;;;;;;;18.57;54.24;104208.16;5284484;28;20021;-79
2022/03/18 08:13:45;;;;;;;12.75;5.82;;;;;;;19.14;49.17;104206.59;5285887;28;20056;-79
2022/03/18 08:16:16;;;;;;;16.58;5.80;;;;;;;19.46;46.16;104213.09;5278840;28;20021;-79
2022/03/18 08:18:48;;;;;;;12.60;4.95;;;;;;;20.59;42.81;104221.22;5284380;28;20075;-79
2022/03/18 08:21:19;;;;;;;14.40;5.43;;;;;;;20.65;41.09;104219.91;5277838;28;20039;-79
2022/03/18 08:23:51;;;;;;;10.40;4.68;;;;;;;20.91;39.95;104227.69;5285949;28;20119;-79
2022/03/18 08:26:22;;;;;;;14.48;4.95;;;;;;;21.74;37.54;104217.91;5276059;28;20366;-79
2022/03/18 08:28:53;;;;;;;12.13;4.30;;;;;;;20.44;35.88;104221.63;5273698;28;20116;-79
2022/03/18 08:31:26;;;;;;;15.32;4.72;;;;;;;21.81;35.67;104212.75;5267169;28;20716;-77
2022/03/18 08:33:57;;;;;;;9.55;3.90;;;;;;;21.71;33.96;104219.00;5282705;28;20327;-79
2022/03/18 08:36:28;;;;;;;8.00;4.13;;;;;;;22.74;33.43;104233.41;5280906;28;20033;-79
2022/03/18 08:39:00;;;;;;;12.43;4.23;;;;;;;23.02;32.00;104226.25;5285225;28;20115;-77
2022/03/18 08:41:31;;;;;;;8.85;3.78;;;;;;;23.58;31.42;104231.94;5280901;28;20583;-78
2022/03/18 08:44:03;;;;;;;12.00;3.75;;;;;;;24.24;31.47;104233.69;5263198;28;41374;-78
2022/03/18 08:46:34;;;;;;;8.23;3.17;;;;;;;24.92;30.17;104241.44;5265922;28;20036;-78
2022/03/18 08:49:06;;;;;;;10.45;4.10;;;;;;;24.45;30.38;104225.25;5282898;28;20021;-79
2022/03/18 08:51:37;;;;;;;9.30;3.70;;;;;;;24.94;28.34;104240.44;5266807;28;20339;-79
2022/03/18 08:54:08;;;;;;;9.68;3.97;;;;;;;25.46;28.96;104260.53;5285174;28;20021;-79
2022/03/18 08:56:40;;;;;;;6.47;3.22;;;;;;;24.76;30.10;104257.69;5282594;28;20389;-79
2022/03/18 08:59:11;;;;;;;8.43;3.97;;;;;;;24.76;28.87;104260.41;5282047;28;20483;-78
2022/03/18 09:01:43;;;;;;;9.27;4.30;;;;;;;25.17;29.65;104263.50;5280741;28;20063;-78
2022/03/18 09:04:14;;;;;;;11.60;3.80;;;;;;;26.17;28.57;104257.72;5282927;28;20288;-78
2022/03/18 09:06:46;;;;;;;7.23;3.20;;;;;;;27.36;25.00;104259.34;5284401;28;20116;-78
2022/03/18 09:09:17;;;;;;;9.65;4.00;;;;;;;27.21;24.74;104264.63;5279869;28;20266;-78
2022/03/18 09:11:49;;;;;;;6.87;3.40;;;;;;;27.40;25.23;104263.44;5282809;28;20032;-78
2022/03/18 09:14:21;;;;;;;7.93;3.53;;;;;;;26.56;24.67;104270.84;5283835;28;20287;-78
2022/03/18 09:16:52;;;;;;;7.45;3.60;;;;;;;26.47;26.42;104278.16;5283482;28;20278;-78
2022/03/18 09:19:24;;;;;;;8.15;3.65;;;;;;;27.12;25.64;104277.47;5284062;28;20100;-78
2022/03/18 09:21:55;;;;;;;11.80;3.58;;;;;;;28.01;23.64;104277.53;5278450;28;20037;-78
2022/03/18 09:24:26;;;;;;;7.47;3.27;;;;;;;27.94;23.68;104272.94;5281637;28;20025;-78
2022/03/18 09:26:57;;;;;;;7.85;3.25;;;;;;;27.83;24.98;104266.78;5279195;28;20350;-79
2022/03/18 09:29:29;;;;;;;9.80;3.30;;;;;;;29.94;21.83;104277.53;5279343;28;20025;-79
2022/03/18 09:32:00;;;;;;;5.80;2.90;;;;;;;29.46;21.53;104282.47;5261809;28;20390;-78
2022/03/18 09:34:31;;;;;;;10.57;3.47;;;;;;;29.12;21.99;104281.06;5264613;28;20032;-79
2022/03/18 09:37:03;;;;;;;5.68;2.60;;;;;;;29.97;21.58;104285.38;5273889;28;20348;-78
2022/03/18 09:39:34;;;;;;;7.88;3.20;;;;;;;29.95;21.52;104292.13;5283491;28;20033;-79
2022/03/18 09:42:07;;;;;;;9.02;3.20;;;;;;;30.53;20.98;104267.47;5283140;28;20047;-79
2022/03/18 09:44:39;;;;;;;6.55;2.60;;;;;;;31.82;19.46;104281.13;5275973;28;20028;-78
2022/03/18 09:47:11;;;;;;;9.02;3.08;;;;;;;31.72;18.54;104275.13;5283849;28;20067;-79
2022/03/18 09:49:44;;;;;;;6.20;2.83;;;;;;;31.00;19.41;104279.00;5276510;28;20108;-79
2022/03/18 09:52:15;;;;;;;8.50;3.13;;;;;;;30.19;19.60;104271.72;5273295;28;20039;-79
2022/03/18 09:54:47;;;;;;;8.25;2.92;;;;;;;30.68;18.59;104281.19;5258411;28;20429;-79
2022/03/18 09:57:18;;;;;;;10.07;2.35;;;;;;;31.58;18.01;104289.91;5259044;28;20033;-79
2022/03/18 09:59:49;;;;;;;4.63;2.10;;;;;;;31.09;17.72;104280.56;5274502;28;20559;-79
2022/03/18 10:02:33;;;;;;;5.57;2.50;;;;;;;31.45;18.65;104285.97;5276840;28;20041;-78
2022/03/18 10:05:13;;;;;;;13.02;3.00;;;;;;;30.79;20.59;104291.69;5279976;28;20645;-78
2022/03/18 10:07:53;;;;;;;5.88;2.03;;;;;;;32.14;19.59;104300.00;5270224;28;20854;-79
2022/03/18 10:10:27;;;;;;;5.63;2.10;;;;;;;32.21;17.13;104293.44;5279230;28;20083;-79
2022/03/18 10:13:00;;;;;;;4.82;2.00;;;;;;;32.11;17.10;104301.25;5280037;28;20036;-79
2022/03/18 10:15:33;;;;;;;3.78;1.77;;;;;;;32.39;16.76;104292.88;5272342;28;20052;-79
2022/03/18 10:18:09;;;;;;;6.38;2.22;;;;;;;32.68;16.56;104292.75;5275785;28;20611;-80
2022/03/18 10:20:43;;;;;;;4.90;2.00;;;;;;;32.90;16.76;104301.72;5278154;28;20560;-79
2022/03/18 10:23:17;;;;;;;4.07;2.20;;;;;;;32.83;16.94;104301.72;5268765;28;20118;-79
2022/03/18 10:25:56;;;;;;;9.23;2.50;;;;;;;32.42;18.40;104299.91;5272486;28;20550;-79
2022/03/18 10:28:36;;;;;;;6.75;2.72;;;;;;;31.32;19.78;104290.50;5278104;28;20028;-79
2022/03/18 10:31:22;;;;;;;7.72;2.63;;;;;;;33.10;18.62;104286.03;5274801;28;20151;-79
2022/03/18 10:39:42;;;;;;;5.35;1.88;;;;;;;32.94;17.87;104300.25;5260826;28;20390;-79
2022/03/18 10:42:15;;;;;;;5.60;2.25;;;;;;;34.22;15.76;104287.97;5276207;28;20033;-80
2022/03/18 10:44:54;;;;;;;6.15;2.13;;;;;;;34.27;15.94;104297.31;5277459;28;20108;-80
2022/03/18 10:47:26;;;;;;;4.72;1.73;;;;;;;33.11;16.19;104293.22;5273393;28;20025;-80
2022/03/18 10:50:17;;;;;;;4.15;1.73;;;;;;;34.88;15.23;104297.81;5274954;28;20469;-79
2022/03/18 10:52:48;;;;;;;6.50;2.00;;;;;;;32.68;16.64;104292.75;5276840;28;20284;-79
2022/03/18 10:55:22;;;;;;;4.83;2.10;;;;;;;33.37;15.22;104296.25;5276593;28;20067;-79
2022/03/18 10:57:54;;;;;;;6.30;2.20;;;;;;;33.82;15.66;104290.84;5260052;28;20033;-79
2022/03/18 11:00:29;;;;;;;4.68;1.90;;;;;;;32.21;16.19;104282.41;5277642;28;20385;-79
2022/03/18 11:03:02;;;;;;;3.88;1.80;;;;;;;32.81;16.01;104290.03;5278918;28;20536;-79
2022/03/18 11:05:38;;;;;;;4.97;2.22;;;;;;;32.40;16.64;104288.22;5272065;28;20386;-79
2022/03/18 11:08:13;;;;;;;;;;;;;;;36.94;14.20;104284.53;5280126;28;20172;-79
2022/03/18 11:11:10;;;;;;;6.95;2.08;;;;;;;33.99;15.33;104282.91;5276163;28;20120;-79
2022/03/18 11:13:53;;;;;;;4.43;1.73;;;;;;;33.68;15.64;104281.72;5276414;28;20035;-79
2022/03/18 11:16:28;;;;;;;3.53;1.83;;;;;;;33.44;15.57;104281.34;5281291;28;20024;-79
2022/03/18 11:19:01;;;;;;;5.17;2.10;;;;;;;32.31;16.23;104270.09;5273269;28;20025;-79
2022/03/18 11:21:36;;;;;;;6.28;2.10;;;;;;;31.76;16.62;104264.53;5281896;28;20028;-79
2022/03/18 11:24:27;;;;;;;6.00;2.00;;;;;;;34.88;16.49;104270.09;5282239;28;20377;-80
2022/03/18 11:26:58;;;;;;;5.35;2.17;;;;;;;33.62;15.80;104271.50;5281072;28;20358;-79
2022/03/18 11:29:31;;;;;;;5.43;2.10;;;;;;;34.38;14.89;104267.19;5282888;28;20023;-79
2022/03/18 11:32:21;;;;;;;5.15;2.08;;;;;;;36.03;14.42;104271.53;5282047;28;20039;-79
2022/03/18 11:34:58;;;;;;;4.60;2.08;;;;;;;33.60;15.71;104268.97;5282131;28;20087;-79
2022/03/18 11:37:30;;;;;;;4.97;2.20;;;;;;;34.08;15.71;104276.94;5281683;28;20072;-80
2022/03/18 11:40:20;;;;;;;7.80;2.55;;;;;;;35.50;15.27;104272.09;5282024;28;20021;-79
2022/03/18 11:42:51;;;;;;;5.38;2.40;;;;;;;32.83;16.72;104263.03;5282294;28;20044;-79
2022/03/18 11:45:33;;;;;;;6.60;2.50;;;;;;;34.20;15.12;104262.41;5282177;28;20021;-79
2022/03/18 11:48:44;;;;;;;7.82;1.88;;;;;;;35.64;15.21;104267.25;5282410;28;20298;-79
2022/03/18 11:51:39;;;;;;;6.72;2.95;;;;;;;35.50;15.45;104270.19;5217173;28;20045;-79
2022/03/18 11:54:16;;;;;;;9.30;2.30;;;;;;;33.49;15.97;104275.16;5261270;28;20044;-79